createdAt,value
2018-06-17T00:00:48.168Z,99.90
2018-06-17T00:03:16.628Z,99.90
2018-06-17T00:05:45.089Z,99.90
2018-06-17T00:08:13.556Z,99.90
2018-06-17T00:10:42.025Z,99.90
2018-06-17T00:13:10.484Z,99.90
2018-06-17T00:18:07.060Z,99.90
2018-06-17T00:20:35.487Z,99.90
2018-06-17T00:23:03.943Z,99.90
2018-06-17T00:25:32.376Z,99.90
2018-06-17T00:30:28.963Z,99.90
2018-06-17T00:32:57.391Z,99.90
2018-06-17T00:35:25.839Z,99.90
2018-06-17T00:37:54.308Z,99.90
2018-06-17T00:40:22.803Z,99.90
2018-06-17T00:42:51.227Z,99.90
2018-06-17T00:47:47.809Z,99.90
2018-06-17T00:50:16.269Z,99.90
2018-06-17T00:52:44.697Z,99.90
2018-06-17T00:55:13.132Z,99.90
2018-06-17T01:00:17.159Z,99.90
2018-06-17T01:07:42.724Z,99.90
2018-06-17T01:10:11.199Z,99.90
2018-06-17T01:12:39.959Z,99.90
2018-06-17T01:15:08.734Z,99.90
2018-06-17T01:17:37.550Z,99.90
2018-06-17T01:22:34.476Z,99.90
2018-06-17T01:25:02.964Z,99.90
2018-06-17T01:27:31.419Z,99.90
2018-06-17T01:29:59.876Z,99.90
2018-06-17T01:32:28.303Z,99.90
2018-06-17T01:34:56.731Z,99.90
2018-06-17T01:37:25.179Z,99.90
2018-06-17T01:39:53.600Z,99.90
2018-06-17T01:42:22.053Z,99.90
2018-06-17T01:47:18.648Z,99.90
2018-06-17T01:49:47.080Z,99.90
2018-06-17T01:54:43.686Z,99.90
2018-06-17T01:57:12.116Z,99.90
2018-06-17T02:02:08.732Z,99.90
2018-06-17T02:04:42.604Z,99.90
2018-06-17T02:07:16.352Z,99.90
2018-06-17T02:09:50.135Z,99.90
2018-06-17T02:12:19.579Z,99.90
2018-06-17T02:14:53.347Z,99.90
2018-06-17T02:17:22.784Z,99.90
2018-06-17T02:19:51.915Z,99.90
2018-06-17T02:22:20.347Z,99.90
2018-06-17T02:24:48.771Z,99.90
2018-06-17T02:27:17.461Z,99.90
2018-06-17T02:29:45.875Z,99.90
2018-06-17T02:32:14.421Z,99.90
2018-06-17T02:34:42.843Z,99.90
2018-06-17T02:37:11.320Z,99.90
2018-06-17T02:39:39.746Z,99.90
2018-06-17T02:42:09.038Z,99.90
2018-06-17T02:44:37.743Z,99.90
2018-06-17T02:52:14.619Z,99.90
2018-06-17T02:54:47.951Z,99.90
2018-06-17T02:59:47.151Z,99.90
2018-06-17T03:02:15.828Z,99.90
2018-06-17T03:04:44.288Z,99.90
2018-06-17T03:07:12.707Z,99.90
2018-06-17T03:12:09.295Z,99.90
2018-06-17T03:14:37.711Z,99.90
2018-06-17T03:17:06.166Z,99.90
2018-06-17T03:19:34.619Z,99.90
2018-06-17T03:22:03.115Z,99.90
2018-06-17T03:24:36.839Z,99.90
2018-06-17T03:27:10.575Z,99.90
2018-06-17T03:29:44.398Z,99.90
2018-06-17T03:34:50.603Z,99.90
2018-06-17T03:37:19.031Z,99.90
2018-06-17T03:39:47.438Z,99.90
2018-06-17T03:44:43.988Z,99.90
2018-06-17T03:47:12.452Z,99.90
2018-06-17T03:49:40.868Z,99.90
2018-06-17T03:52:09.270Z,99.90
2018-06-17T03:54:37.714Z,99.90
2018-06-17T03:57:06.151Z,99.90
2018-06-17T03:59:34.611Z,99.90
2018-06-17T04:02:03.031Z,99.90
2018-06-17T04:04:35.679Z,99.90
2018-06-17T04:07:04.091Z,99.90
2018-06-17T04:09:32.515Z,99.90
2018-06-17T04:12:00.951Z,99.90
2018-06-17T04:14:29.358Z,99.90
2018-06-17T04:21:58.544Z,99.90
2018-06-17T04:24:26.974Z,99.90
2018-06-17T04:29:23.518Z,99.90
2018-06-17T04:34:20.075Z,99.90
2018-06-17T04:36:48.495Z,99.90
2018-06-17T04:39:16.931Z,99.90
2018-06-17T04:44:13.453Z,99.90
2018-06-17T04:46:41.887Z,99.90
2018-06-17T04:49:10.299Z,99.90
2018-06-17T04:51:38.729Z,99.90
2018-06-17T04:56:35.298Z,99.90
2018-06-17T04:59:03.730Z,99.90
2018-06-17T05:01:32.135Z,99.90
2018-06-17T05:04:00.582Z,99.90
2018-06-17T05:06:28.995Z,99.90
2018-06-17T05:08:57.447Z,99.90
2018-06-17T05:11:25.859Z,99.90
2018-06-17T05:16:22.398Z,99.90
2018-06-17T05:18:50.832Z,99.90
2018-06-17T05:21:19.251Z,99.90
2018-06-17T05:23:47.691Z,99.90
2018-06-17T05:26:16.128Z,99.90
2018-06-17T05:31:12.702Z,99.90
2018-06-17T05:33:41.110Z,99.90
2018-06-17T05:36:09.552Z,99.90
2018-06-17T05:41:06.147Z,99.90
2018-06-17T05:43:34.566Z,99.90
2018-06-17T05:46:02.991Z,99.90
2018-06-17T05:48:31.398Z,99.90
2018-06-17T05:50:59.859Z,99.90
2018-06-17T05:53:28.291Z,99.90
2018-06-17T05:55:56.711Z,99.90
2018-06-17T05:58:25.148Z,99.90
2018-06-17T06:00:53.563Z,99.90
2018-06-17T06:03:22.024Z,99.90
2018-06-17T06:05:50.436Z,99.90
2018-06-17T06:08:18.859Z,99.90
2018-06-17T06:10:47.270Z,99.90
2018-06-17T06:15:43.829Z,99.90
2018-06-17T06:18:12.243Z,99.90
2018-06-17T06:20:40.675Z,99.90
2018-06-17T06:25:37.242Z,99.90
2018-06-17T06:28:05.663Z,99.90
2018-06-17T06:30:34.103Z,99.90
2018-06-17T06:33:02.516Z,99.90
2018-06-17T06:35:30.934Z,99.90
2018-06-17T06:37:59.367Z,99.90
2018-06-17T06:40:27.785Z,99.90
2018-06-17T06:42:56.343Z,99.90
2018-06-17T06:45:24.739Z,99.90
2018-06-17T06:47:53.162Z,99.90
2018-06-17T06:50:21.567Z,99.90
2018-06-17T06:52:49.969Z,99.90
2018-06-17T06:55:18.427Z,99.90
2018-06-17T06:57:46.831Z,99.90
2018-06-17T07:00:15.270Z,99.90
2018-06-17T07:02:54.970Z,99.90
2018-06-17T07:05:34.745Z,99.90
2018-06-17T07:08:14.520Z,99.90
2018-06-17T07:10:42.957Z,99.90
2018-06-17T07:13:11.401Z,99.90
2018-06-17T07:15:51.099Z,99.90
2018-06-17T07:20:53.078Z,99.90
2018-06-17T07:26:34.008Z,99.90
2018-06-17T07:29:13.831Z,99.90
2018-06-17T07:31:42.302Z,99.90
2018-06-17T07:34:11.474Z,99.90
2018-06-17T07:36:40.250Z,99.90
2018-06-17T07:40:24.227Z,99.90
2018-06-17T07:42:52.671Z,99.60
2018-06-17T07:45:21.098Z,99.80
2018-06-17T07:50:28.983Z,99.90
2018-06-17T07:53:08.635Z,99.10
2018-06-17T07:55:37.058Z,98.80
2018-06-17T07:58:05.540Z,98.90
2018-06-17T08:00:33.980Z,97.50
2018-06-17T08:03:02.381Z,98.00
2018-06-17T08:05:30.854Z,97.00
2018-06-17T08:07:59.265Z,96.40
2018-06-17T08:10:27.682Z,96.40
2018-06-17T08:12:56.119Z,96.50
2018-06-17T08:15:25.159Z,95.20
2018-06-17T08:17:53.599Z,95.30
2018-06-17T08:20:22.060Z,94.70
2018-06-17T08:22:50.527Z,95.70
2018-06-17T08:27:47.031Z,94.30
2018-06-17T08:30:15.471Z,94.50
2018-06-17T08:35:12.064Z,93.90
2018-06-17T08:37:40.458Z,93.30
2018-06-17T08:40:08.915Z,93.90
2018-06-17T08:42:37.322Z,92.40
2018-06-17T08:45:05.738Z,91.90
2018-06-17T08:47:34.158Z,93.00
2018-06-17T08:50:02.555Z,91.60
2018-06-17T08:52:30.975Z,91.20
2018-06-17T08:54:59.385Z,90.80
2018-06-17T08:57:27.816Z,91.60
2018-06-17T08:59:56.227Z,91.10
2018-06-17T09:02:24.663Z,91.20
2018-06-17T09:04:53.068Z,91.80
2018-06-17T09:07:21.462Z,90.20
2018-06-17T09:12:18.009Z,91.20
2018-06-17T09:14:46.411Z,91.20
2018-06-17T09:17:14.822Z,91.50
2018-06-17T09:19:43.250Z,92.00
2018-06-17T09:24:39.743Z,89.00
2018-06-17T09:27:08.170Z,89.60
2018-06-17T09:29:36.569Z,89.40
2018-06-17T09:32:05.100Z,87.20
2018-06-17T09:34:33.475Z,87.30
2018-06-17T09:37:01.911Z,84.50
2018-06-17T09:39:30.323Z,85.00
2018-06-17T09:41:58.724Z,83.00
2018-06-17T09:44:27.193Z,84.00
2018-06-17T09:46:55.567Z,84.10
2018-06-17T09:49:23.990Z,83.40
2018-06-17T09:51:52.399Z,86.20
2018-06-17T09:54:20.826Z,82.90
2018-06-17T09:56:49.222Z,80.50
2018-06-17T09:59:17.643Z,80.90
2018-06-17T10:01:46.057Z,80.70
2018-06-17T10:04:14.466Z,80.70
2018-06-17T10:06:42.948Z,82.00
2018-06-17T10:09:11.832Z,80.50
2018-06-17T10:11:40.259Z,81.00
2018-06-17T10:14:08.655Z,81.20
2018-06-17T10:16:37.081Z,79.50
2018-06-17T10:19:05.751Z,79.50
2018-06-17T10:21:34.183Z,79.70
2018-06-17T10:24:02.583Z,78.60
2018-06-17T10:26:31.010Z,79.10
2018-06-17T10:28:59.411Z,77.50
2018-06-17T10:31:27.830Z,76.70
2018-06-17T10:33:56.235Z,77.20
2018-06-17T10:36:24.667Z,77.10
2018-06-17T10:38:53.083Z,76.00
2018-06-17T10:41:21.484Z,76.70
2018-06-17T10:43:49.907Z,77.10
2018-06-17T10:46:18.319Z,75.70
2018-06-17T10:48:46.798Z,74.80
2018-06-17T10:51:15.203Z,74.70
2018-06-17T10:53:43.627Z,73.40
2018-06-17T10:56:12.110Z,72.70
2018-06-17T11:01:08.652Z,70.20
2018-06-17T11:03:37.026Z,70.50
2018-06-17T11:06:05.531Z,71.60
2018-06-17T11:08:33.942Z,73.00
2018-06-17T11:11:02.371Z,71.60
2018-06-17T11:15:58.889Z,71.60
2018-06-17T11:18:27.325Z,66.50
2018-06-17T11:20:55.779Z,65.30
2018-06-17T11:23:24.211Z,63.60
2018-06-17T11:25:52.615Z,66.70
2018-06-17T11:28:21.046Z,66.00
2018-06-17T11:30:49.447Z,65.00
2018-06-17T11:33:17.878Z,65.40
2018-06-17T11:38:14.371Z,65.30
2018-06-17T11:40:42.801Z,67.00
2018-06-17T11:43:11.218Z,67.20
2018-06-17T11:45:39.648Z,66.00
2018-06-17T11:48:08.060Z,66.60
2018-06-17T11:50:36.490Z,66.70
2018-06-17T11:53:04.911Z,67.20
2018-06-17T11:55:33.319Z,65.60
2018-06-17T11:58:01.764Z,63.80
2018-06-17T12:02:58.287Z,64.10
2018-06-17T12:05:26.743Z,63.00
2018-06-17T12:07:55.140Z,62.50
2018-06-17T12:10:23.563Z,60.70
2018-06-17T12:12:51.995Z,61.90
2018-06-17T12:15:20.407Z,61.20
2018-06-17T12:20:16.977Z,59.90
2018-06-17T12:22:45.387Z,59.60
2018-06-17T12:25:13.815Z,60.30
2018-06-17T12:27:42.211Z,56.00
2018-06-17T12:30:10.651Z,54.60
2018-06-17T12:32:39.055Z,52.10
2018-06-17T12:35:07.491Z,51.50
2018-06-17T12:37:35.909Z,53.70
2018-06-17T12:40:04.319Z,54.40
2018-06-17T12:42:32.742Z,55.90
2018-06-17T12:45:01.141Z,55.60
2018-06-17T12:47:29.575Z,55.50
2018-06-17T12:49:57.982Z,56.30
2018-06-17T12:52:26.407Z,56.60
2018-06-17T12:54:54.811Z,58.00
2018-06-17T12:57:23.670Z,56.80
2018-06-17T13:02:20.188Z,51.20
2018-06-17T13:04:48.612Z,46.50
2018-06-17T13:09:45.219Z,38.30
2018-06-17T13:12:13.619Z,35.50
2018-06-17T13:14:42.071Z,36.00
2018-06-17T13:17:10.467Z,35.40
2018-06-17T13:19:38.899Z,35.90
2018-06-17T13:22:07.454Z,38.00
2018-06-17T13:24:35.879Z,38.30
2018-06-17T13:27:04.391Z,37.40
2018-06-17T13:29:32.805Z,36.80
2018-06-17T13:32:01.263Z,35.80
2018-06-17T13:34:29.666Z,36.90
2018-06-17T13:39:26.207Z,38.40
2018-06-17T13:41:54.635Z,40.30
2018-06-17T13:44:23.048Z,42.70
2018-06-17T13:46:51.478Z,44.40
2018-06-17T13:49:19.890Z,45.80
2018-06-17T13:51:48.327Z,45.60
2018-06-17T13:56:44.840Z,45.90
2018-06-17T13:59:13.271Z,47.30
2018-06-17T14:01:41.759Z,47.20
2018-06-17T14:04:10.195Z,48.10
2018-06-17T14:06:38.601Z,47.90
2018-06-17T14:11:36.075Z,49.70
2018-06-17T14:14:04.730Z,50.30
2018-06-17T14:16:33.281Z,50.30
2018-06-17T14:19:01.688Z,50.40
2018-06-17T14:21:30.162Z,50.90
2018-06-17T14:23:58.579Z,51.30
2018-06-17T14:28:55.098Z,51.40
2018-06-17T14:31:23.506Z,50.40
2018-06-17T14:36:20.031Z,51.60
2018-06-17T14:38:48.442Z,51.00
2018-06-17T14:43:52.098Z,51.20
2018-06-17T14:46:25.951Z,51.50
2018-06-17T14:48:59.562Z,51.70
2018-06-17T14:51:33.364Z,51.90
2018-06-17T14:54:01.791Z,51.70
2018-06-17T14:56:30.206Z,51.00
2018-06-17T14:58:58.647Z,51.00
2018-06-17T15:01:27.060Z,50.50
2018-06-17T15:03:55.504Z,50.40
2018-06-17T15:06:23.933Z,51.00
2018-06-17T15:08:52.345Z,51.20
2018-06-17T15:13:48.898Z,52.00
2018-06-17T15:16:17.330Z,51.90
2018-06-17T15:18:45.747Z,52.60
2018-06-17T15:23:42.291Z,52.40
2018-06-17T15:26:10.699Z,52.10
2018-06-17T15:28:39.143Z,52.30
2018-06-17T15:31:12.850Z,52.30
2018-06-17T15:34:49.071Z,52.60
2018-06-17T15:37:22.706Z,52.80
2018-06-17T15:39:54.200Z,53.20
2018-06-17T15:44:50.715Z,52.50
2018-06-17T15:47:19.411Z,52.50
2018-06-17T15:49:47.947Z,53.00
2018-06-17T15:52:16.352Z,52.80
2018-06-17T15:54:44.750Z,52.30
2018-06-17T15:57:13.188Z,52.40
2018-06-17T15:59:41.598Z,52.60
2018-06-17T16:02:10.026Z,53.40
2018-06-17T16:04:38.427Z,53.50
2018-06-17T16:07:06.859Z,53.70
2018-06-17T16:09:35.299Z,54.20
2018-06-17T16:12:08.931Z,54.30
2018-06-17T16:14:42.599Z,54.20
2018-06-17T16:17:16.532Z,54.50
2018-06-17T16:19:50.258Z,54.60
2018-06-17T16:22:18.723Z,54.60
2018-06-17T16:24:47.126Z,54.80
2018-06-17T16:29:43.654Z,55.30
2018-06-17T16:32:12.055Z,55.50
2018-06-17T16:34:40.491Z,56.20
2018-06-17T16:37:08.926Z,56.30
2018-06-17T16:39:37.376Z,55.70
2018-06-17T16:42:05.786Z,56.80
2018-06-17T16:44:34.187Z,56.10
2018-06-17T16:47:02.623Z,54.40
2018-06-17T16:49:31.056Z,55.00
2018-06-17T16:52:04.898Z,54.70
2018-06-17T16:54:38.642Z,54.90
2018-06-17T16:57:12.335Z,55.40
2018-06-17T16:59:46.171Z,56.00
2018-06-17T17:02:14.581Z,56.50
2018-06-17T17:04:42.979Z,56.30
2018-06-17T17:07:11.407Z,56.40
2018-06-17T17:09:39.822Z,55.70
2018-06-17T17:12:08.248Z,55.50
2018-06-17T17:14:36.655Z,54.60
2018-06-17T17:17:05.083Z,55.50
2018-06-17T17:19:33.495Z,55.10
2018-06-17T17:22:01.924Z,55.40
2018-06-17T17:24:30.363Z,56.20
2018-06-17T17:26:58.763Z,55.60
2018-06-17T17:29:27.208Z,56.20
2018-06-17T17:32:00.914Z,56.50
2018-06-17T17:34:34.626Z,56.40
2018-06-17T17:37:08.427Z,56.30
2018-06-17T17:42:10.752Z,56.40
2018-06-17T17:44:44.466Z,56.30
2018-06-17T17:47:18.187Z,56.40
2018-06-17T17:49:46.653Z,57.00
2018-06-17T17:52:15.059Z,57.50
2018-06-17T17:54:43.540Z,57.30
2018-06-17T17:57:11.948Z,57.00
2018-06-17T18:02:08.467Z,57.70
2018-06-17T18:04:36.886Z,57.80
2018-06-17T18:07:05.319Z,58.00
2018-06-17T18:09:34.062Z,58.60
2018-06-17T18:12:02.505Z,59.10
2018-06-17T18:14:30.924Z,58.80
2018-06-17T18:16:59.355Z,59.70
2018-06-17T18:19:27.948Z,59.70
2018-06-17T18:21:56.638Z,59.60
2018-06-17T18:24:25.235Z,59.60
2018-06-17T18:26:59.059Z,59.90
2018-06-17T18:29:32.838Z,60.40
2018-06-17T18:32:06.615Z,61.10
2018-06-17T18:34:40.381Z,61.00
2018-06-17T18:37:08.804Z,61.30
2018-06-17T18:39:37.232Z,61.90
2018-06-17T18:42:05.702Z,62.10
2018-06-17T18:44:34.159Z,61.40
2018-06-17T18:47:02.566Z,61.10
2018-06-17T18:49:31.011Z,61.20
2018-06-17T18:52:00.304Z,61.40
2018-06-17T18:54:28.702Z,61.20
2018-06-17T18:56:57.307Z,61.40
2018-06-17T18:59:25.699Z,61.40
2018-06-17T19:04:22.231Z,61.20
2018-06-17T19:06:50.651Z,61.40
2018-06-17T19:10:25.943Z,62.00
2018-06-17T19:12:59.747Z,62.70
2018-06-17T19:15:33.318Z,63.10
2018-06-17T19:18:09.404Z,63.60
2018-06-17T19:20:38.212Z,63.90
2018-06-17T19:23:06.667Z,64.60
2018-06-17T19:25:35.099Z,64.90
2018-06-17T19:28:03.539Z,65.30
2018-06-17T19:30:31.994Z,65.60
2018-06-17T19:33:00.424Z,65.60
2018-06-17T19:35:28.859Z,65.90
2018-06-17T19:37:57.276Z,66.40
2018-06-17T19:40:25.683Z,66.60
2018-06-17T19:42:54.103Z,67.20
2018-06-17T19:45:22.550Z,67.20
2018-06-17T19:47:50.975Z,68.00
2018-06-17T19:50:24.870Z,67.90
2018-06-17T19:52:58.607Z,68.10
2018-06-17T19:55:32.331Z,68.30
2018-06-17T20:00:38.366Z,68.70
2018-06-17T20:03:06.751Z,68.90
2018-06-17T20:05:35.159Z,69.30
2018-06-17T20:08:03.598Z,69.70
2018-06-17T20:10:32.018Z,70.00
2018-06-17T20:15:28.567Z,70.70
2018-06-17T20:17:56.986Z,70.80
2018-06-17T20:20:25.431Z,71.00
2018-06-17T20:22:53.835Z,71.30
2018-06-17T20:25:22.251Z,71.60
2018-06-17T20:27:50.683Z,71.80
2018-06-17T20:30:19.095Z,71.60
2018-06-17T20:32:52.822Z,71.60
2018-06-17T20:35:26.542Z,71.30
2018-06-17T20:38:00.333Z,71.80
2018-06-17T20:40:34.151Z,72.40
2018-06-17T20:43:08.020Z,72.70
2018-06-17T20:45:36.471Z,73.20
2018-06-17T20:50:32.990Z,73.20
2018-06-17T20:53:01.425Z,73.20
2018-06-17T20:55:29.863Z,73.60
2018-06-17T20:57:58.349Z,73.60
2018-06-17T21:00:26.711Z,73.80
2018-06-17T21:02:55.135Z,74.10
2018-06-17T21:05:23.551Z,74.40
2018-06-17T21:07:52.132Z,74.70
2018-06-17T21:10:20.568Z,75.20
2018-06-17T21:12:48.971Z,75.40
2018-06-17T21:15:17.926Z,75.60
2018-06-17T21:17:47.614Z,75.90
2018-06-17T21:20:21.487Z,75.90
2018-06-17T21:22:55.239Z,76.00
2018-06-17T21:25:29.143Z,76.10
2018-06-17T21:27:59.051Z,76.40
2018-06-17T21:30:27.454Z,76.40
2018-06-17T21:32:55.884Z,76.80
2018-06-17T21:35:24.292Z,76.80
2018-06-17T21:37:52.720Z,77.10
2018-06-17T21:40:21.123Z,77.70
2018-06-17T21:42:49.546Z,77.70
2018-06-17T21:45:17.950Z,78.20
2018-06-17T21:47:46.402Z,79.10
2018-06-17T21:50:14.827Z,78.70
2018-06-17T21:52:43.270Z,79.00
2018-06-17T21:55:11.666Z,79.10
2018-06-17T21:57:40.075Z,79.50
2018-06-17T22:00:09.439Z,80.10
2018-06-17T22:02:44.958Z,80.30
2018-06-17T22:05:13.910Z,80.70
2018-06-17T22:07:47.587Z,81.00
2018-06-17T22:12:55.091Z,81.80
2018-06-17T22:17:57.075Z,82.40
2018-06-17T22:22:53.598Z,82.90
2018-06-17T22:25:22.084Z,83.00
2018-06-17T22:27:50.499Z,83.20
2018-06-17T22:30:18.919Z,83.60
2018-06-17T22:32:47.355Z,83.60
2018-06-17T22:35:15.763Z,83.80
2018-06-17T22:37:44.203Z,83.60
2018-06-17T22:40:12.619Z,84.10
2018-06-17T22:42:41.043Z,84.20
2018-06-17T22:45:09.455Z,84.10
2018-06-17T22:47:43.171Z,84.60
2018-06-17T22:50:11.575Z,84.80
2018-06-17T22:52:51.979Z,85.00
2018-06-17T22:55:20.434Z,85.30
2018-06-17T22:57:54.258Z,85.90
2018-06-17T23:00:27.978Z,86.20
2018-06-17T23:05:35.263Z,86.80
2018-06-17T23:08:09.127Z,87.10
2018-06-17T23:10:37.575Z,87.20
2018-06-17T23:15:34.099Z,87.90
2018-06-17T23:18:02.503Z,87.80
2018-06-17T23:22:59.026Z,88.70
2018-06-17T23:25:27.438Z,88.90
2018-06-17T23:30:23.950Z,89.30
2018-06-17T23:32:52.395Z,89.80
2018-06-17T23:35:20.811Z,90.00
2018-06-17T23:37:49.231Z,90.10
2018-06-17T23:40:17.639Z,90.30
2018-06-17T23:42:46.058Z,90.40
2018-06-17T23:45:14.467Z,90.70
2018-06-17T23:47:48.244Z,90.70
2018-06-17T23:50:21.915Z,91.00
2018-06-17T23:52:55.654Z,91.20
2018-06-17T23:55:29.323Z,91.30
2018-06-17T23:57:57.751Z,91.60
